createdAt,value
2023-03-07T00:01:09.235Z,52.23
2023-03-07T00:03:36.923Z,55.60
2023-03-07T00:06:09.988Z,49.57
2023-03-07T00:08:37.157Z,51.70
2023-03-07T00:11:06.120Z,47.67
2023-03-07T00:13:35.121Z,50.03
2023-03-07T00:16:07.525Z,50.57
2023-03-07T00:18:35.337Z,54.53
2023-03-07T00:21:08.228Z,55.07
2023-03-07T00:23:37.719Z,52.40
2023-03-07T00:26:07.094Z,55.43
2023-03-07T00:28:35.075Z,50.63
2023-03-07T00:31:04.247Z,57.50
2023-03-07T00:33:31.778Z,51.10
2023-03-07T00:36:01.634Z,48.17
2023-03-07T00:38:30.626Z,52.37
2023-03-07T00:41:11.674Z,55.03
2023-03-07T00:43:39.522Z,53.37
2023-03-07T00:46:07.280Z,56.17
2023-03-07T00:48:37.464Z,57.90
2023-03-07T00:51:06.036Z,60.50
2023-03-07T00:53:33.396Z,56.63
2023-03-07T00:56:18.506Z,64.90
2023-03-07T00:58:46.502Z,57.50
2023-03-07T01:01:16.129Z,68.97
2023-03-07T01:03:44.685Z,67.63
2023-03-07T01:06:17.546Z,84.33
2023-03-07T01:08:45.160Z,75.90
2023-03-07T01:11:14.507Z,69.87
2023-03-07T01:13:41.752Z,76.53
2023-03-07T01:16:11.787Z,83.23
2023-03-07T01:18:41.665Z,85.50
2023-03-07T01:21:30.045Z,87.33
2023-03-07T01:23:58.729Z,80.03
2023-03-07T01:26:28.605Z,83.37
2023-03-07T01:28:59.446Z,87.13
2023-03-07T01:31:27.102Z,78.40
2023-03-07T01:33:54.636Z,80.23
2023-03-07T01:36:30.435Z,77.90
2023-03-07T01:39:10.639Z,81.73
2023-03-07T01:41:41.134Z,78.40
2023-03-07T01:44:22.567Z,77.10
2023-03-07T01:46:55.163Z,66.63
2023-03-07T01:49:31.314Z,66.77
2023-03-07T01:52:20.676Z,74.10
2023-03-07T01:54:56.170Z,65.77
2023-03-07T01:57:28.931Z,66.83
2023-03-07T01:59:59.620Z,65.00
2023-03-07T02:02:27.140Z,71.63
2023-03-07T02:05:05.913Z,63.13
2023-03-07T02:07:40.386Z,63.97
2023-03-07T02:10:08.631Z,60.43
2023-03-07T02:12:35.501Z,58.77
2023-03-07T02:15:04.113Z,60.17
2023-03-07T02:17:32.061Z,54.17
2023-03-07T02:20:24.831Z,62.83
2023-03-07T02:22:51.885Z,54.93
2023-03-07T02:25:58.105Z,60.20
2023-03-07T02:28:25.309Z,57.23
2023-03-07T02:31:00.369Z,56.07
2023-03-07T02:33:30.820Z,59.57
2023-03-07T02:36:24.321Z,62.90
2023-03-07T02:39:02.670Z,60.97
2023-03-07T02:41:32.460Z,57.37
2023-03-07T02:44:02.524Z,55.33
2023-03-07T02:46:30.045Z,55.90
2023-03-07T02:48:56.927Z,55.77
2023-03-07T02:51:24.318Z,53.23
2023-03-07T02:53:51.327Z,59.53
2023-03-07T02:56:18.507Z,56.77
2023-03-07T02:58:45.967Z,52.90
2023-03-07T03:01:13.391Z,60.23
2023-03-07T03:03:40.271Z,49.60
2023-03-07T03:06:07.298Z,55.33
2023-03-07T03:08:34.855Z,59.03
2023-03-07T03:11:02.040Z,53.80
2023-03-07T03:13:29.353Z,58.67
2023-03-07T03:15:58.123Z,58.23
2023-03-07T03:18:27.817Z,53.97
2023-03-07T03:20:54.824Z,55.60
2023-03-07T03:23:21.654Z,62.77
2023-03-07T03:26:05.305Z,56.77
2023-03-07T03:28:33.465Z,63.60
2023-03-07T03:31:02.249Z,81.10
2023-03-07T03:33:30.659Z,70.87
2023-03-07T03:35:59.487Z,77.40
2023-03-07T03:38:27.234Z,87.30
2023-03-07T03:40:55.660Z,80.43
2023-03-07T03:43:22.651Z,82.23
2023-03-07T03:45:56.878Z,80.97
2023-03-07T03:48:26.929Z,87.07
2023-03-07T03:51:06.130Z,85.77
2023-03-07T03:53:34.476Z,91.27
2023-03-07T03:56:12.624Z,97.57
2023-03-07T03:58:40.515Z,89.30
2023-03-07T04:01:11.625Z,95.60
2023-03-07T04:03:41.316Z,94.53
2023-03-07T04:06:11.989Z,90.70
2023-03-07T04:08:39.957Z,106.03
2023-03-07T04:11:07.213Z,101.10
2023-03-07T04:13:35.344Z,109.50
2023-03-07T04:16:03.050Z,106.67
2023-03-07T04:18:30.053Z,108.63
2023-03-07T04:20:57.135Z,96.37
2023-03-07T04:23:25.000Z,104.47
2023-03-07T04:25:57.398Z,100.17
2023-03-07T04:28:26.962Z,99.27
2023-03-07T04:30:56.260Z,107.30
2023-03-07T04:33:24.352Z,99.80
2023-03-07T04:35:51.384Z,96.13
2023-03-07T04:38:18.342Z,98.57
2023-03-07T04:40:45.440Z,110.10
2023-03-07T04:43:12.225Z,102.10
2023-03-07T04:45:39.571Z,108.50
2023-03-07T04:48:06.721Z,111.67
2023-03-07T04:50:35.939Z,108.67
2023-03-07T04:53:02.688Z,109.80
2023-03-07T04:55:30.105Z,112.83
2023-03-07T04:57:57.995Z,105.03
2023-03-07T05:00:25.494Z,100.60
2023-03-07T05:02:52.384Z,93.67
2023-03-07T05:05:19.850Z,112.30
2023-03-07T05:07:46.703Z,103.60
2023-03-07T05:10:13.804Z,105.07
2023-03-07T05:12:40.970Z,88.60
2023-03-07T05:15:11.010Z,98.23
2023-03-07T05:17:39.093Z,102.80
2023-03-07T05:20:07.106Z,80.67
2023-03-07T05:22:35.309Z,78.00
2023-03-07T05:25:02.598Z,82.70
2023-03-07T05:27:29.485Z,81.43
2023-03-07T05:29:56.556Z,83.63
2023-03-07T05:32:23.591Z,79.80
2023-03-07T05:34:51.100Z,87.67
2023-03-07T05:37:20.128Z,91.33
2023-03-07T05:39:47.446Z,108.40
2023-03-07T05:42:15.629Z,166.50
2023-03-07T05:44:43.519Z,153.90
2023-03-07T05:47:11.174Z,170.93
2023-03-07T05:49:38.800Z,157.70
2023-03-07T05:52:05.958Z,159.30
2023-03-07T05:54:33.109Z,128.57
2023-03-07T05:56:59.944Z,131.77
2023-03-07T05:59:27.154Z,109.83
2023-03-07T06:01:54.037Z,107.87
2023-03-07T06:04:21.305Z,99.67
2023-03-07T06:06:48.212Z,96.60
2023-03-07T06:09:15.369Z,101.90
2023-03-07T06:11:42.714Z,111.27
2023-03-07T06:14:10.643Z,102.53
2023-03-07T06:16:37.376Z,126.13
2023-03-07T06:19:04.491Z,121.83
2023-03-07T06:21:31.535Z,112.87
2023-03-07T06:23:58.907Z,92.23
2023-03-07T06:26:26.188Z,94.77
2023-03-07T06:28:55.338Z,93.83
2023-03-07T06:31:25.201Z,69.70
2023-03-07T06:33:52.952Z,75.90
2023-03-07T06:36:21.180Z,84.60
2023-03-07T06:38:54.604Z,75.13
2023-03-07T06:41:23.271Z,84.27
2023-03-07T06:43:53.161Z,81.50
2023-03-07T06:46:25.658Z,83.63
2023-03-07T06:48:55.193Z,80.23
2023-03-07T06:51:23.122Z,88.70
2023-03-07T06:53:50.173Z,91.63
2023-03-07T06:56:17.839Z,92.47
2023-03-07T06:58:44.912Z,97.47
2023-03-07T07:01:22.897Z,95.37
2023-03-07T07:03:52.278Z,88.27
2023-03-07T07:06:19.533Z,89.57
2023-03-07T07:08:48.658Z,79.20
2023-03-07T07:11:15.949Z,77.33
2023-03-07T07:13:45.638Z,72.40
2023-03-07T07:16:14.367Z,81.10
2023-03-07T07:18:41.509Z,72.10
2023-03-07T07:21:09.278Z,82.10
2023-03-07T07:23:36.694Z,86.37
2023-03-07T07:26:04.710Z,85.43
2023-03-07T07:28:33.384Z,90.93
2023-03-07T07:31:00.410Z,74.20
2023-03-07T07:33:28.666Z,89.33
2023-03-07T07:35:55.653Z,86.63
2023-03-07T07:38:22.718Z,93.17
2023-03-07T07:40:49.496Z,79.97
2023-03-07T07:43:17.653Z,90.13
2023-03-07T07:45:55.860Z,92.83
2023-03-07T07:48:23.029Z,88.97
2023-03-07T07:50:49.790Z,88.37
2023-03-07T07:53:19.885Z,84.57
2023-03-07T07:55:48.916Z,94.33
2023-03-07T07:58:16.712Z,96.73
2023-03-07T08:00:45.554Z,102.53
2023-03-07T08:03:12.559Z,97.03
2023-03-07T08:05:44.225Z,92.47
2023-03-07T08:08:11.264Z,99.00
2023-03-07T08:10:43.002Z,83.90
2023-03-07T08:13:14.348Z,99.20
2023-03-07T08:15:42.341Z,98.63
2023-03-07T08:18:10.943Z,93.70
2023-03-07T08:20:38.424Z,104.37
2023-03-07T08:23:05.467Z,102.57
2023-03-07T08:25:32.495Z,108.23
2023-03-07T08:27:59.771Z,86.60
2023-03-07T08:30:29.500Z,107.03
2023-03-07T08:32:57.082Z,105.97
2023-03-07T08:35:25.094Z,107.83
2023-03-07T08:38:01.889Z,100.07
2023-03-07T08:40:30.700Z,99.20
2023-03-07T08:42:59.497Z,95.67
2023-03-07T08:45:26.917Z,98.40
2023-03-07T08:47:57.613Z,107.23
2023-03-07T08:50:27.820Z,109.27
2023-03-07T08:52:54.927Z,95.70
2023-03-07T08:55:21.736Z,102.53
2023-03-07T08:57:48.784Z,98.00
2023-03-07T09:00:16.135Z,88.07
2023-03-07T09:02:43.263Z,89.43
2023-03-07T09:05:10.503Z,85.43
2023-03-07T09:07:37.647Z,95.47
2023-03-07T09:10:05.896Z,84.00
2023-03-07T09:12:33.894Z,89.83
2023-03-07T09:15:00.684Z,88.33
2023-03-07T09:17:27.933Z,86.00
2023-03-07T09:19:56.504Z,87.40
2023-03-07T09:22:23.544Z,87.60
2023-03-07T09:24:50.280Z,86.73
2023-03-07T09:27:17.317Z,84.47
2023-03-07T09:29:44.296Z,84.70
2023-03-07T09:32:11.337Z,91.83
2023-03-07T09:34:38.162Z,100.70
2023-03-07T09:37:05.265Z,101.23
2023-03-07T09:39:32.751Z,98.20
2023-03-07T09:42:27.837Z,98.23
2023-03-07T09:45:10.539Z,104.70
2023-03-07T09:48:12.312Z,95.43
2023-03-07T09:50:49.176Z,95.13
2023-03-07T09:53:24.497Z,99.73
2023-03-07T09:55:57.199Z,108.57
2023-03-07T09:58:25.974Z,94.90
2023-03-07T10:00:57.488Z,107.73
2023-03-07T10:03:38.980Z,113.60
2023-03-07T10:06:24.998Z,118.80
2023-03-07T10:08:54.038Z,109.27
2023-03-07T10:11:26.688Z,103.23
2023-03-07T10:14:03.576Z,93.83
2023-03-07T10:16:39.454Z,101.87
2023-03-07T10:19:29.885Z,92.30
2023-03-07T10:22:09.476Z,95.03
2023-03-07T10:24:48.879Z,90.10
2023-03-07T10:27:16.349Z,96.23
2023-03-07T10:29:51.904Z,95.03
2023-03-07T10:32:20.964Z,97.23
2023-03-07T10:35:11.157Z,97.37
2023-03-07T10:37:56.900Z,87.53
2023-03-07T10:40:25.539Z,84.00
2023-03-07T10:42:53.455Z,80.90
2023-03-07T10:45:20.831Z,77.43
2023-03-07T10:47:47.685Z,83.17
2023-03-07T10:50:33.609Z,82.00
2023-03-07T10:53:03.270Z,81.80
2023-03-07T10:55:36.538Z,84.60
2023-03-07T10:58:24.056Z,84.90
2023-03-07T11:01:17.145Z,96.70
2023-03-07T11:03:54.237Z,86.50
2023-03-07T11:06:30.940Z,75.70
2023-03-07T11:09:07.372Z,92.03
2023-03-07T11:11:36.681Z,82.50
2023-03-07T11:14:14.392Z,80.63
2023-03-07T11:16:49.166Z,90.20
2023-03-07T11:19:36.961Z,81.47
2023-03-07T11:22:24.107Z,90.57
2023-03-07T11:24:59.171Z,73.47
2023-03-07T11:27:32.057Z,75.17
2023-03-07T11:30:15.523Z,73.97
2023-03-07T11:32:50.816Z,72.13
2023-03-07T11:35:22.429Z,71.80
2023-03-07T11:38:06.301Z,68.53
2023-03-07T11:40:49.932Z,73.33
2023-03-07T11:43:22.134Z,62.73
2023-03-07T11:45:55.128Z,57.73
2023-03-07T11:48:45.317Z,60.53
2023-03-07T11:51:29.553Z,60.13
2023-03-07T11:54:03.366Z,59.23
2023-03-07T11:56:37.064Z,57.80
2023-03-07T11:59:35.058Z,55.30
2023-03-07T12:02:04.133Z,57.50
2023-03-07T12:04:57.944Z,51.97
2023-03-07T12:07:43.914Z,52.70
2023-03-07T12:10:26.206Z,54.70
2023-03-07T12:12:59.012Z,51.47
2023-03-07T12:15:34.930Z,52.47
2023-03-07T12:18:16.784Z,53.80
2023-03-07T12:21:01.631Z,50.50
2023-03-07T12:23:37.919Z,48.60
2023-03-07T12:26:18.481Z,43.87
2023-03-07T12:28:55.063Z,45.67
2023-03-07T12:31:31.543Z,50.63
2023-03-07T12:34:02.727Z,48.83
2023-03-07T12:36:48.435Z,45.93
2023-03-07T12:39:24.674Z,48.00
2023-03-07T12:42:00.236Z,51.40
2023-03-07T12:44:40.867Z,46.63
2023-03-07T12:47:34.452Z,46.47
2023-03-07T12:50:26.193Z,44.10
2023-03-07T12:53:02.196Z,46.37
2023-03-07T12:55:44.588Z,49.10
2023-03-07T12:58:44.510Z,48.47
2023-03-07T13:01:19.310Z,39.70
2023-03-07T13:03:53.636Z,44.83
2023-03-07T13:06:22.730Z,45.93
2023-03-07T13:08:56.162Z,44.03
2023-03-07T13:11:32.293Z,44.00
2023-03-07T13:14:01.258Z,52.07
2023-03-07T13:16:41.729Z,48.03
2023-03-07T13:19:36.637Z,43.70
2023-03-07T13:22:16.674Z,42.20
2023-03-07T13:24:48.373Z,45.40
2023-03-07T13:27:24.168Z,47.63
2023-03-07T13:30:10.142Z,49.20
2023-03-07T13:32:52.243Z,47.63
2023-03-07T13:35:31.221Z,45.60
2023-03-07T13:38:03.706Z,49.50
2023-03-07T13:40:33.455Z,45.00
2023-03-07T13:43:01.555Z,46.70
2023-03-07T13:45:37.467Z,44.00
2023-03-07T13:48:28.887Z,49.70
2023-03-07T13:51:01.329Z,48.77
2023-03-07T13:53:28.108Z,52.20
2023-03-07T13:56:02.127Z,52.33
2023-03-07T13:58:37.405Z,51.53
2023-03-07T14:01:21.721Z,44.43
2023-03-07T14:03:55.932Z,51.73
2023-03-07T14:06:26.391Z,52.10
2023-03-07T14:08:54.962Z,51.80
2023-03-07T14:11:58.452Z,54.30
2023-03-07T14:15:08.604Z,52.43
2023-03-07T14:17:38.311Z,55.03
2023-03-07T14:20:42.033Z,49.87
2023-03-07T14:23:30.133Z,55.60
2023-03-07T14:26:11.675Z,54.87
2023-03-07T14:29:03.774Z,53.67
2023-03-07T14:31:38.740Z,57.33
2023-03-07T14:34:22.178Z,61.00
2023-03-07T14:37:00.497Z,58.07
2023-03-07T14:39:33.344Z,60.40
2023-03-07T14:42:18.750Z,61.13
2023-03-07T14:45:08.962Z,58.27
2023-03-07T14:47:57.048Z,61.60
2023-03-07T14:50:29.153Z,63.37
2023-03-07T14:53:02.364Z,71.47
2023-03-07T14:55:36.175Z,62.83
2023-03-07T14:58:03.229Z,64.57
2023-03-07T15:00:32.640Z,70.93
2023-03-07T15:03:08.049Z,71.60
2023-03-07T15:05:52.942Z,76.23
2023-03-07T15:08:23.806Z,73.33
2023-03-07T15:10:59.620Z,82.60
2023-03-07T15:13:32.124Z,62.97
2023-03-07T15:16:03.712Z,60.87
2023-03-07T15:18:33.381Z,64.77
2023-03-07T15:21:02.245Z,63.90
2023-03-07T15:23:29.880Z,56.60
2023-03-07T15:26:10.822Z,60.73
2023-03-07T15:28:42.720Z,58.63
2023-03-07T15:31:10.330Z,58.57
2023-03-07T15:33:37.162Z,54.67
2023-03-07T15:36:13.443Z,53.70
2023-03-07T15:38:43.129Z,61.43
2023-03-07T15:41:36.317Z,62.17
2023-03-07T15:44:22.163Z,65.17
2023-03-07T15:46:52.565Z,54.23
2023-03-07T15:49:43.624Z,56.20
2023-03-07T15:52:31.091Z,60.33
2023-03-07T15:54:59.914Z,53.50
2023-03-07T15:57:32.022Z,54.50
2023-03-07T16:00:06.723Z,60.17
2023-03-07T16:02:52.731Z,61.67
2023-03-07T16:05:19.500Z,54.50
2023-03-07T16:07:47.705Z,55.27
2023-03-07T16:10:15.014Z,54.20
2023-03-07T16:12:46.498Z,49.70
2023-03-07T16:15:19.463Z,45.70
2023-03-07T16:17:53.298Z,52.23
2023-03-07T16:20:24.647Z,67.57
2023-03-07T16:22:52.695Z,62.83
2023-03-07T16:25:20.746Z,62.57
2023-03-07T16:27:54.086Z,52.10
2023-03-07T16:30:27.242Z,61.90
2023-03-07T16:32:54.978Z,59.83
2023-03-07T16:35:24.515Z,58.37
2023-03-07T16:37:52.577Z,61.70
2023-03-07T16:40:20.697Z,61.10
2023-03-07T16:42:50.356Z,60.60
2023-03-07T16:45:26.351Z,64.50
2023-03-07T16:47:56.055Z,60.60
2023-03-07T16:50:26.052Z,54.20
2023-03-07T16:52:53.214Z,51.80
2023-03-07T16:55:20.735Z,59.80
2023-03-07T16:57:54.988Z,60.03
2023-03-07T17:00:24.559Z,58.43
2023-03-07T17:02:53.943Z,61.23
2023-03-07T17:05:27.357Z,69.60
2023-03-07T17:07:56.561Z,68.60
2023-03-07T17:10:26.419Z,64.70
2023-03-07T17:12:56.033Z,53.67
2023-03-07T17:15:30.600Z,57.00
2023-03-07T17:17:58.912Z,53.40
2023-03-07T17:20:26.506Z,53.47
2023-03-07T17:22:53.901Z,51.63
2023-03-07T17:25:21.621Z,61.27
2023-03-07T17:27:52.894Z,55.30
2023-03-07T17:30:25.465Z,46.87
2023-03-07T17:32:52.835Z,34.07
2023-03-07T17:35:20.106Z,32.47
2023-03-07T17:37:50.420Z,34.70
2023-03-07T17:40:17.395Z,31.67
2023-03-07T17:42:44.890Z,30.47
2023-03-07T17:45:13.214Z,28.93
2023-03-07T17:47:40.759Z,26.80
2023-03-07T17:50:09.965Z,20.33
2023-03-07T17:52:37.197Z,17.37
2023-03-07T17:55:09.342Z,19.43
2023-03-07T17:57:36.663Z,18.50
2023-03-07T18:00:14.265Z,17.93
2023-03-07T18:02:44.878Z,15.87
2023-03-07T18:05:13.170Z,14.23
2023-03-07T18:07:41.337Z,13.43
2023-03-07T18:10:10.104Z,14.60
2023-03-07T18:12:39.126Z,11.07
2023-03-07T18:15:08.795Z,12.57
2023-03-07T18:17:47.399Z,10.70
2023-03-07T18:20:16.732Z,9.33
2023-03-07T18:22:43.764Z,9.80
2023-03-07T18:25:14.312Z,10.50
2023-03-07T18:27:41.881Z,7.87
2023-03-07T18:30:09.334Z,10.50
2023-03-07T18:32:36.506Z,10.97
2023-03-07T18:35:04.209Z,9.63
2023-03-07T18:37:31.216Z,10.10
2023-03-07T18:39:58.002Z,10.87
2023-03-07T18:42:24.973Z,10.17
2023-03-07T18:44:51.718Z,11.23
2023-03-07T18:47:18.702Z,9.57
2023-03-07T18:49:45.474Z,8.83
2023-03-07T18:52:12.452Z,8.33
2023-03-07T18:54:39.544Z,11.10
2023-03-07T18:57:06.547Z,10.43
2023-03-07T18:59:33.346Z,9.53
2023-03-07T19:02:03.054Z,13.70
2023-03-07T19:04:31.360Z,13.87
2023-03-07T19:07:00.641Z,11.03
2023-03-07T19:09:27.797Z,10.87
2023-03-07T19:11:54.833Z,12.53
2023-03-07T19:14:21.677Z,13.73
2023-03-07T19:16:48.868Z,12.20
2023-03-07T19:19:15.810Z,12.67
2023-03-07T19:21:42.969Z,13.00
2023-03-07T19:24:11.806Z,13.27
2023-03-07T19:26:40.106Z,9.67
2023-03-07T19:29:06.908Z,10.73
2023-03-07T19:31:34.980Z,11.23
2023-03-07T19:34:05.072Z,11.53
2023-03-07T19:36:34.542Z,12.67
2023-03-07T19:39:01.360Z,11.60
2023-03-07T19:41:30.790Z,12.93
2023-03-07T19:43:59.146Z,15.07
2023-03-07T19:46:26.442Z,11.60
2023-03-07T19:48:53.458Z,11.07
2023-03-07T19:51:23.024Z,15.33
2023-03-07T19:53:50.402Z,11.67
2023-03-07T19:56:29.099Z,10.70
2023-03-07T19:58:57.522Z,14.37
2023-03-07T20:01:24.979Z,14.53
2023-03-07T20:03:52.609Z,12.83
2023-03-07T20:06:22.438Z,13.67
2023-03-07T20:08:50.780Z,13.67
2023-03-07T20:11:20.594Z,16.07
2023-03-07T20:13:48.150Z,13.27
2023-03-07T20:16:17.131Z,14.30
2023-03-07T20:18:48.611Z,17.67
2023-03-07T20:21:17.094Z,16.90
2023-03-07T20:23:45.786Z,14.63
2023-03-07T20:26:19.664Z,21.73
2023-03-07T20:28:46.434Z,16.87
2023-03-07T20:31:13.861Z,18.30
2023-03-07T20:33:46.761Z,18.90
2023-03-07T20:36:25.555Z,16.30
2023-03-07T20:38:54.820Z,18.43
2023-03-07T20:41:24.551Z,21.23
2023-03-07T20:43:53.525Z,20.27
2023-03-07T20:46:21.904Z,21.63
2023-03-07T20:48:49.512Z,17.73
2023-03-07T20:51:21.473Z,19.67
2023-03-07T20:53:50.683Z,17.53
2023-03-07T20:56:18.851Z,20.60
2023-03-07T20:58:46.456Z,20.37
2023-03-07T21:01:16.331Z,16.27
2023-03-07T21:03:43.431Z,19.13
2023-03-07T21:06:10.830Z,18.30
2023-03-07T21:08:37.984Z,19.10
2023-03-07T21:11:06.331Z,19.40
2023-03-07T21:13:37.428Z,19.33
2023-03-07T21:16:10.377Z,24.97
2023-03-07T21:18:37.414Z,18.70
2023-03-07T21:21:11.216Z,17.83
2023-03-07T21:23:38.446Z,16.87
2023-03-07T21:26:08.147Z,20.07
2023-03-07T21:28:35.529Z,18.70
2023-03-07T21:31:08.593Z,19.63
2023-03-07T21:33:35.967Z,17.90
2023-03-07T21:36:04.025Z,20.57
2023-03-07T21:38:32.037Z,21.27
2023-03-07T21:40:59.601Z,23.33
2023-03-07T21:43:27.174Z,16.93
2023-03-07T21:45:54.662Z,18.17
2023-03-07T21:48:21.606Z,18.00
2023-03-07T21:50:51.652Z,20.50
2023-03-07T21:53:19.260Z,18.87
2023-03-07T21:55:54.876Z,21.93
2023-03-07T21:58:22.042Z,22.83
2023-03-07T22:00:50.196Z,20.83
2023-03-07T22:03:18.006Z,20.73
2023-03-07T22:05:45.227Z,23.73
2023-03-07T22:08:12.684Z,21.30
2023-03-07T22:10:39.705Z,21.90
2023-03-07T22:13:06.955Z,19.00
2023-03-07T22:15:34.173Z,19.03
2023-03-07T22:18:01.039Z,18.37
2023-03-07T22:20:28.020Z,22.10
2023-03-07T22:22:54.697Z,22.87
2023-03-07T22:25:21.756Z,28.20
2023-03-07T22:27:48.603Z,19.50
2023-03-07T22:30:15.648Z,26.10
2023-03-07T22:32:44.880Z,20.93
2023-03-07T22:35:12.072Z,22.03
2023-03-07T22:37:38.921Z,22.87
2023-03-07T22:40:06.798Z,21.00
2023-03-07T22:42:33.647Z,24.07
2023-03-07T22:45:00.688Z,24.97
2023-03-07T22:47:29.381Z,21.27
2023-03-07T22:49:56.802Z,25.07
2023-03-07T22:52:23.547Z,21.87
2023-03-07T22:54:50.570Z,23.30
2023-03-07T22:57:17.438Z,21.70
2023-03-07T22:59:44.395Z,19.67
2023-03-07T23:02:11.162Z,21.80
2023-03-07T23:04:38.245Z,19.53
2023-03-07T23:07:05.744Z,21.77
2023-03-07T23:09:32.883Z,19.97
2023-03-07T23:11:59.590Z,20.10
2023-03-07T23:14:26.814Z,21.23
2023-03-07T23:16:53.524Z,22.80
2023-03-07T23:19:20.525Z,23.10
2023-03-07T23:21:47.292Z,17.80
2023-03-07T23:24:14.342Z,21.80
2023-03-07T23:26:41.072Z,21.40
2023-03-07T23:29:09.923Z,22.93
2023-03-07T23:31:38.738Z,18.97
2023-03-07T23:34:08.510Z,25.20
2023-03-07T23:36:36.006Z,20.33
2023-03-07T23:39:03.407Z,20.83
2023-03-07T23:41:31.639Z,18.87
2023-03-07T23:44:00.345Z,19.40
2023-03-07T23:46:28.126Z,19.63
2023-03-07T23:48:56.313Z,23.27
2023-03-07T23:51:24.092Z,21.07
2023-03-07T23:53:51.438Z,19.23
2023-03-07T23:56:18.161Z,20.20
2023-03-07T23:58:49.214Z,23.17
